createdAt,value
2022-10-23T00:00:29.904Z,4.6
2022-10-23T00:01:46.201Z,4.4
2022-10-23T00:03:02.495Z,4.4
2022-10-23T00:04:18.796Z,4.2
2022-10-23T00:05:35.088Z,4.6
2022-10-23T00:06:51.363Z,4.6
2022-10-23T00:08:07.664Z,4.3
2022-10-23T00:09:22.968Z,4.3
2022-10-23T00:10:39.273Z,4.3
2022-10-23T00:11:55.566Z,4.1
2022-10-23T00:13:11.867Z,4.4
2022-10-23T00:14:28.146Z,4.6
2022-10-23T00:15:44.439Z,4.5
2022-10-23T00:17:00.730Z,4.2
2022-10-23T00:18:17.024Z,4.4
2022-10-23T00:19:33.332Z,4.3
2022-10-23T00:20:49.626Z,4.3
2022-10-23T00:22:05.914Z,4.8
2022-10-23T00:23:22.218Z,4.6
2022-10-23T00:24:38.497Z,4.2
2022-10-23T00:25:53.823Z,4
2022-10-23T00:27:10.113Z,4.4
2022-10-23T00:28:26.423Z,4.3
2022-10-23T00:29:42.716Z,4
2022-10-23T00:30:58.999Z,3.8
2022-10-23T00:32:14.325Z,4
2022-10-23T00:33:30.608Z,4.2
2022-10-23T00:34:46.898Z,4.1
2022-10-23T00:36:03.193Z,4.1
2022-10-23T00:37:19.489Z,4.2
2022-10-23T00:38:35.794Z,4
2022-10-23T00:39:52.071Z,3.9
2022-10-23T00:41:08.386Z,4.3
2022-10-23T00:42:24.664Z,4.2
2022-10-23T00:43:40.953Z,4.3
2022-10-23T00:44:57.243Z,4.1
2022-10-23T00:46:13.546Z,4.3
2022-10-23T00:47:29.828Z,4.4
2022-10-23T00:48:45.140Z,4.2
2022-10-23T00:50:01.447Z,4.2
2022-10-23T00:51:17.747Z,4.4
2022-10-23T00:52:34.036Z,4.4
2022-10-23T00:53:50.331Z,4.2
2022-10-23T00:55:06.617Z,4.3
2022-10-23T00:56:22.924Z,4.2
2022-10-23T00:57:39.197Z,4.2
2022-10-23T00:58:55.506Z,4.2
2022-10-23T01:00:11.795Z,4.3
2022-10-23T01:01:28.091Z,4.7
2022-10-23T01:02:44.000Z,4.4
2022-10-23T01:04:00.681Z,4.5
2022-10-23T01:05:15.979Z,4.5
2022-10-23T01:06:32.275Z,4.4
2022-10-23T01:07:48.585Z,4.6
2022-10-23T01:09:04.873Z,4.5
2022-10-23T01:10:21.155Z,4.6
2022-10-23T01:11:37.467Z,4.4
2022-10-23T01:12:53.743Z,4.2
2022-10-23T01:14:10.053Z,4.4
2022-10-23T01:15:26.337Z,4.4
2022-10-23T01:16:42.627Z,4.5
2022-10-23T01:17:58.937Z,4.5
2022-10-23T01:19:15.235Z,4.2
2022-10-23T01:20:31.527Z,4.3
2022-10-23T01:21:46.822Z,4.3
2022-10-23T01:23:03.115Z,4.6
2022-10-23T01:24:19.409Z,4.7
2022-10-23T01:25:35.712Z,4.6
2022-10-23T01:26:52.013Z,4.3
2022-10-23T01:28:08.317Z,4.3
2022-10-23T01:29:24.580Z,4.6
2022-10-23T01:30:40.882Z,4.4
2022-10-23T01:31:57.170Z,4.5
2022-10-23T01:33:13.465Z,4.7
2022-10-23T01:34:29.780Z,5.1
2022-10-23T01:35:46.053Z,5
2022-10-23T01:37:02.375Z,5
2022-10-23T01:38:17.659Z,4.7
2022-10-23T01:39:33.966Z,5.1
2022-10-23T01:40:50.250Z,5.1
2022-10-23T01:42:06.551Z,5
2022-10-23T01:43:22.841Z,4.8
2022-10-23T01:44:39.149Z,4.6
2022-10-23T01:45:55.421Z,4.6
2022-10-23T01:47:11.729Z,4.8
2022-10-23T01:48:28.015Z,4.3
2022-10-23T01:49:44.317Z,4.3
2022-10-23T01:51:00.609Z,4.5
2022-10-23T01:52:16.905Z,4.3
2022-10-23T01:53:33.202Z,4.6
2022-10-23T01:54:48.508Z,4.6
2022-10-23T01:56:04.789Z,4.5
2022-10-23T01:57:21.114Z,4.5
2022-10-23T01:58:37.378Z,4.1
2022-10-23T01:59:53.700Z,4.6
2022-10-23T02:02:26.288Z,4.6
2022-10-23T02:03:42.552Z,4.3
2022-10-23T02:04:58.863Z,4.7
2022-10-23T02:06:15.140Z,4.4
2022-10-23T02:07:31.440Z,4.3
2022-10-23T02:08:47.741Z,4.3
2022-10-23T02:10:04.037Z,4.8
2022-10-23T02:11:19.350Z,4.8
2022-10-23T02:12:35.629Z,4.6
2022-10-23T02:13:51.927Z,4.3
2022-10-23T02:15:08.224Z,4.4
2022-10-23T02:16:24.510Z,4.4
2022-10-23T02:17:40.831Z,4.3
2022-10-23T02:18:57.097Z,4.4
2022-10-23T02:20:13.394Z,4.4
2022-10-23T02:21:29.691Z,4.2
2022-10-23T02:22:45.995Z,4.4
2022-10-23T02:24:02.290Z,4.1
2022-10-23T02:25:18.596Z,4.7
2022-10-23T02:26:34.869Z,4.6
2022-10-23T02:27:50.195Z,4.2
2022-10-23T02:29:06.476Z,4.5
2022-10-23T02:30:22.776Z,4.3
2022-10-23T02:31:39.054Z,4.2
2022-10-23T02:32:55.350Z,4.3
2022-10-23T02:34:11.657Z,4.2
2022-10-23T02:35:27.958Z,4.2
2022-10-23T02:36:44.229Z,4.4
2022-10-23T02:38:00.535Z,4.8
2022-10-23T02:39:16.846Z,4.6
2022-10-23T02:40:33.118Z,4.6
2022-10-23T02:41:49.414Z,4.6
2022-10-23T02:43:05.703Z,4.8
2022-10-23T02:44:21.035Z,4.8
2022-10-23T02:45:37.325Z,5.2
2022-10-23T02:46:53.617Z,5
2022-10-23T02:48:09.907Z,4.8
2022-10-23T02:49:26.198Z,4.7
2022-10-23T02:50:42.506Z,4.9
2022-10-23T02:51:58.803Z,5.2
2022-10-23T02:53:15.091Z,4.9
2022-10-23T02:54:31.381Z,5.2
2022-10-23T02:55:47.675Z,5.3
2022-10-23T02:57:03.956Z,5.4
2022-10-23T02:58:20.272Z,5.5
2022-10-23T02:59:36.538Z,5.7
2022-10-23T03:00:51.858Z,6.3
2022-10-23T03:02:08.150Z,5.8
2022-10-23T03:03:24.447Z,5.8
2022-10-23T03:04:40.731Z,5.8
2022-10-23T03:05:57.037Z,5.9
2022-10-23T03:07:13.343Z,6
2022-10-23T03:08:29.000Z,5.5
2022-10-23T03:09:45.929Z,5.9
2022-10-23T03:11:02.206Z,5.6
2022-10-23T03:12:18.497Z,6
2022-10-23T03:13:34.812Z,5.3
2022-10-23T03:14:51.102Z,5.1
2022-10-23T03:16:07.383Z,5.5
2022-10-23T03:17:22.700Z,5.2
2022-10-23T03:18:38.998Z,5.6
2022-10-23T03:19:55.294Z,5.2
2022-10-23T03:21:11.584Z,5.5
2022-10-23T03:22:27.879Z,4.9
2022-10-23T03:23:44.185Z,5.4
2022-10-23T03:25:00.464Z,5
2022-10-23T03:26:16.764Z,4.7
2022-10-23T03:27:33.054Z,4.8
2022-10-23T03:28:49.344Z,4.7
2022-10-23T03:30:05.646Z,5.1
2022-10-23T03:31:21.942Z,5.1
2022-10-23T03:33:54.522Z,4.8
2022-10-23T03:35:09.837Z,4.6
2022-10-23T03:36:26.119Z,4.8
2022-10-23T03:37:42.430Z,5
2022-10-23T03:38:58.706Z,5
2022-10-23T03:40:15.015Z,5.5
2022-10-23T03:41:31.293Z,5
2022-10-23T03:42:47.595Z,4.9
2022-10-23T03:44:03.906Z,5
2022-10-23T03:45:20.178Z,4.7
2022-10-23T03:46:36.493Z,4.7
2022-10-23T03:47:52.769Z,4.8
2022-10-23T03:49:09.065Z,4.9
2022-10-23T03:50:25.373Z,4.5
2022-10-23T03:51:40.684Z,4.5
2022-10-23T03:52:56.973Z,4.5
2022-10-23T03:54:13.284Z,4.5
2022-10-23T03:55:29.562Z,4.6
2022-10-23T03:56:45.862Z,4.4
2022-10-23T03:58:02.142Z,4.3
2022-10-23T03:59:18.445Z,4.1
2022-10-23T04:00:34.745Z,4.3
2022-10-23T04:01:51.026Z,4.5
2022-10-23T04:03:07.334Z,4.2
2022-10-23T04:04:23.603Z,4.3
2022-10-23T04:05:39.918Z,3.8
2022-10-23T04:06:56.200Z,4.1
2022-10-23T04:08:11.517Z,4.3
2022-10-23T04:09:27.829Z,4.1
2022-10-23T04:10:44.113Z,4.8
2022-10-23T04:12:00.391Z,4.8
2022-10-23T04:13:16.694Z,4.7
2022-10-23T04:14:32.981Z,4.4
2022-10-23T04:15:49.268Z,4.3
2022-10-23T04:17:05.586Z,4.3
2022-10-23T04:18:21.867Z,4.4
2022-10-23T04:19:38.156Z,4.5
2022-10-23T04:20:54.472Z,4.1
2022-10-23T04:22:10.760Z,4.3
2022-10-23T04:23:27.049Z,4.3
2022-10-23T04:24:42.363Z,4.4
2022-10-23T04:25:58.636Z,4.5
2022-10-23T04:27:14.955Z,4.2
2022-10-23T04:28:31.225Z,4.5
2022-10-23T04:29:47.538Z,4.3
2022-10-23T04:31:03.818Z,4.7
2022-10-23T04:32:20.121Z,4.5
2022-10-23T04:33:36.416Z,4.5
2022-10-23T04:34:52.718Z,4.4
2022-10-23T04:36:09.004Z,4.1
2022-10-23T04:37:25.307Z,4.2
2022-10-23T04:38:41.581Z,4.3
2022-10-23T04:39:57.897Z,4.5
2022-10-23T04:41:13.194Z,4.3
2022-10-23T04:42:29.502Z,4.1
2022-10-23T04:43:45.779Z,4.3
2022-10-23T04:45:02.076Z,4.1
2022-10-23T04:46:18.372Z,4.7
2022-10-23T04:47:33.689Z,4.2
2022-10-23T04:48:49.986Z,4.2
2022-10-23T04:50:06.283Z,3.9
2022-10-23T04:51:22.576Z,4
2022-10-23T04:52:38.867Z,4.1
2022-10-23T04:53:55.162Z,3.9
2022-10-23T04:55:11.459Z,3.8
2022-10-23T04:56:27.752Z,4.1
2022-10-23T04:57:44.052Z,3.9
2022-10-23T04:59:00.347Z,3.9
2022-10-23T05:00:16.634Z,3.8
2022-10-23T05:01:32.914Z,4.4
2022-10-23T05:02:49.226Z,3.6
2022-10-23T05:04:04.524Z,4.4
2022-10-23T05:05:20.814Z,3.9
2022-10-23T05:06:37.107Z,4.3
2022-10-23T05:07:53.356Z,3.9
2022-10-23T05:09:09.660Z,3.7
2022-10-23T05:10:25.950Z,3.8
2022-10-23T05:11:42.249Z,3.7
2022-10-23T05:12:58.497Z,3.7
2022-10-23T05:14:14.722Z,3.7
2022-10-23T05:15:31.019Z,3.4
2022-10-23T05:16:47.310Z,3.8
2022-10-23T05:18:03.629Z,3.5
2022-10-23T05:19:19.871Z,3.9
2022-10-23T05:20:35.156Z,3.5
2022-10-23T05:21:51.364Z,3.4
2022-10-23T05:23:07.602Z,3.5
2022-10-23T05:24:23.868Z,3.7
2022-10-23T05:25:40.085Z,3.6
2022-10-23T05:26:56.331Z,3.4
2022-10-23T05:28:12.579Z,3.4
2022-10-23T05:29:28.810Z,3.3
2022-10-23T05:30:45.063Z,3.2
2022-10-23T05:32:01.294Z,3.4
2022-10-23T05:33:17.531Z,3.4
2022-10-23T05:34:33.768Z,3.2
2022-10-23T05:35:50.038Z,3.4
2022-10-23T05:37:05.262Z,3.3
2022-10-23T05:38:21.536Z,3.4
2022-10-23T05:39:37.765Z,3.2
2022-10-23T05:40:53.984Z,3.4
2022-10-23T05:42:10.247Z,3.2
2022-10-23T05:43:26.485Z,3.4
2022-10-23T05:44:42.719Z,3.6
2022-10-23T05:45:58.959Z,3.7
2022-10-23T05:47:15.185Z,3.5
2022-10-23T05:48:31.443Z,3.4
2022-10-23T05:49:47.674Z,3.2
2022-10-23T05:51:03.920Z,3.6
2022-10-23T05:52:20.161Z,3.7
2022-10-23T05:53:35.399Z,3.2
2022-10-23T05:54:51.671Z,3.5
2022-10-23T05:56:07.892Z,3.2
2022-10-23T05:57:24.123Z,3.3
2022-10-23T05:58:40.376Z,3.3
2022-10-23T05:59:56.619Z,3.2
2022-10-23T06:01:12.840Z,3.2
2022-10-23T06:02:29.100Z,3.2
2022-10-23T06:03:45.321Z,3.3
2022-10-23T06:05:01.581Z,3.3
2022-10-23T06:06:17.818Z,3.3
2022-10-23T06:07:34.045Z,3.4
2022-10-23T06:08:50.282Z,3.4
2022-10-23T06:10:05.559Z,2.9
2022-10-23T06:11:21.779Z,3.4
2022-10-23T06:12:38.018Z,3.1
2022-10-23T06:13:54.295Z,3.2
2022-10-23T06:15:10.503Z,3.2
2022-10-23T06:16:26.742Z,3.3
2022-10-23T06:17:43.000Z,3.4
2022-10-23T06:18:59.250Z,3.3
2022-10-23T06:20:15.466Z,3
2022-10-23T06:21:31.704Z,3
2022-10-23T06:22:47.950Z,3.4
2022-10-23T06:24:04.187Z,3.2
2022-10-23T06:25:20.439Z,3.4
2022-10-23T06:26:35.698Z,3
2022-10-23T06:27:51.920Z,3.1
2022-10-23T06:29:08.180Z,3.7
2022-10-23T06:30:24.416Z,3.1
2022-10-23T06:31:40.662Z,3
2022-10-23T06:32:56.896Z,2.9
2022-10-23T06:34:13.120Z,3.1
2022-10-23T06:35:29.382Z,2.9
2022-10-23T06:36:45.600Z,3
2022-10-23T06:38:01.842Z,3
2022-10-23T06:39:18.084Z,3.1
2022-10-23T06:40:34.337Z,2.7
2022-10-23T06:41:50.564Z,2.8
2022-10-23T06:43:05.835Z,3.1
2022-10-23T06:44:22.061Z,2.8
2022-10-23T06:45:38.313Z,2.7
2022-10-23T06:46:54.567Z,2.9
2022-10-23T06:48:10.803Z,2.7
2022-10-23T06:49:27.036Z,2.6
2022-10-23T06:50:43.263Z,2.6
2022-10-23T06:51:59.530Z,2.9
2022-10-23T06:53:15.751Z,2.7
2022-10-23T06:54:31.982Z,2.5
2022-10-23T06:55:48.223Z,2.6
2022-10-23T06:57:04.478Z,2.5
2022-10-23T06:58:20.710Z,2.4
2022-10-23T06:59:35.965Z,2.7
2022-10-23T07:00:52.205Z,2.6
2022-10-23T07:02:08.457Z,2.7
2022-10-23T07:03:24.707Z,2.2
2022-10-23T07:04:40.935Z,2.4
2022-10-23T07:05:57.183Z,2.6
2022-10-23T07:07:13.399Z,2.5
2022-10-23T07:08:29.656Z,2.5
2022-10-23T07:09:45.897Z,2.4
2022-10-23T07:11:02.144Z,2.4
2022-10-23T07:12:18.385Z,2.4
2022-10-23T07:13:34.605Z,2.3
2022-10-23T07:14:50.844Z,2.4
2022-10-23T07:16:06.108Z,2.6
2022-10-23T07:17:22.354Z,2.1
2022-10-23T07:18:38.582Z,2.3
2022-10-23T07:19:54.826Z,2.3
2022-10-23T07:21:11.065Z,2.4
2022-10-23T07:22:27.294Z,2.4
2022-10-23T07:23:43.547Z,2.2
2022-10-23T07:24:59.798Z,2.3
2022-10-23T07:26:16.018Z,2.2
2022-10-23T07:27:32.276Z,2.3
2022-10-23T07:28:48.508Z,2.3
2022-10-23T07:30:04.752Z,2.4
2022-10-23T07:31:20.993Z,2.6
2022-10-23T07:32:36.232Z,2.2
2022-10-23T07:33:52.476Z,2.3
2022-10-23T07:35:08.746Z,2.1
2022-10-23T07:36:24.957Z,2.1
2022-10-23T07:37:41.211Z,2.4
2022-10-23T07:38:57.448Z,2.2
2022-10-23T07:40:13.693Z,2.3
2022-10-23T07:41:29.944Z,2.1
2022-10-23T07:42:46.184Z,2.4
2022-10-23T07:44:02.392Z,2.3
2022-10-23T07:45:18.650Z,2.4
2022-10-23T07:46:34.883Z,2.5
2022-10-23T07:47:51.137Z,2.6
2022-10-23T07:49:06.000Z,2.2
2022-10-23T07:50:22.612Z,2.4
2022-10-23T07:51:38.860Z,2.2
2022-10-23T07:52:55.108Z,2.2
2022-10-23T07:54:11.340Z,2.1
2022-10-23T07:55:27.583Z,2.2
2022-10-23T07:56:43.832Z,2.2
2022-10-23T07:58:00.065Z,2.2
2022-10-23T07:59:16.301Z,2.1
2022-10-23T08:00:32.550Z,2.1
2022-10-23T08:01:48.786Z,2.2
2022-10-23T08:03:05.036Z,2.4
2022-10-23T08:04:21.266Z,2.2
2022-10-23T08:05:36.539Z,2.2
2022-10-23T08:06:52.744Z,2.2
2022-10-23T08:08:09.009Z,2.2
2022-10-23T08:09:25.230Z,2.1
2022-10-23T08:10:41.499Z,2.6
2022-10-23T08:11:57.724Z,2
2022-10-23T08:13:13.970Z,2.4
2022-10-23T08:14:30.193Z,2.4
2022-10-23T08:15:46.425Z,2.2
2022-10-23T08:17:02.674Z,2.3
2022-10-23T08:18:18.904Z,2.5
2022-10-23T08:19:35.167Z,2.3
2022-10-23T08:20:51.401Z,2.5
2022-10-23T08:22:06.647Z,2.2
2022-10-23T08:23:22.909Z,2.5
2022-10-23T08:24:39.127Z,2.5
2022-10-23T08:25:55.366Z,2.2
2022-10-23T08:27:11.626Z,2.3
2022-10-23T08:28:27.864Z,2.4
2022-10-23T08:29:44.101Z,2.6
2022-10-23T08:31:00.355Z,2.4
2022-10-23T08:32:16.561Z,2.4
2022-10-23T08:33:32.805Z,2.4
2022-10-23T08:34:49.056Z,2.4
2022-10-23T08:36:05.307Z,2.3
2022-10-23T08:37:21.539Z,2.4
2022-10-23T08:38:36.791Z,2.6
2022-10-23T08:39:53.014Z,2.3
2022-10-23T08:41:09.289Z,2.2
2022-10-23T08:42:25.523Z,2.6
2022-10-23T08:43:41.735Z,2.2
2022-10-23T08:44:57.995Z,2.6
2022-10-23T08:46:14.235Z,2.5
2022-10-23T08:47:30.474Z,2.3
2022-10-23T08:48:46.725Z,2.5
2022-10-23T08:50:02.940Z,2.5
2022-10-23T08:51:19.195Z,2.6
2022-10-23T08:52:35.450Z,2.3
2022-10-23T08:53:51.687Z,2.3
2022-10-23T08:55:06.915Z,2.4
2022-10-23T08:56:23.153Z,2.2
2022-10-23T08:57:39.393Z,2.2
2022-10-23T08:58:55.650Z,2.4
2022-10-23T09:00:11.882Z,2.8
2022-10-23T09:01:28.134Z,2.4
2022-10-23T09:02:43.376Z,2.5
2022-10-23T09:03:59.644Z,2.7
2022-10-23T09:05:15.855Z,2.3
2022-10-23T09:06:32.094Z,2.5
2022-10-23T09:07:48.342Z,2.4
2022-10-23T09:09:04.601Z,2.6
2022-10-23T09:10:20.818Z,2.5
2022-10-23T09:11:37.061Z,2.6
2022-10-23T09:12:53.294Z,2.4
2022-10-23T09:14:09.551Z,2.4
2022-10-23T09:15:25.775Z,2.4
2022-10-23T09:16:42.014Z,2.3
2022-10-23T09:17:58.265Z,2.5
2022-10-23T09:19:13.514Z,2.3
2022-10-23T09:20:29.772Z,2.3
2022-10-23T09:21:46.002Z,2.4
2022-10-23T09:23:02.248Z,2.4
2022-10-23T09:24:18.471Z,2.3
2022-10-23T09:25:34.716Z,2.2
2022-10-23T09:26:50.986Z,2.3
2022-10-23T09:28:07.200Z,2.2
2022-10-23T09:29:23.440Z,2.3
2022-10-23T09:30:39.670Z,2.4
2022-10-23T09:31:55.943Z,2.1
2022-10-23T09:33:12.172Z,2.1
2022-10-23T09:34:28.400Z,2
2022-10-23T09:35:43.666Z,2
2022-10-23T09:36:59.911Z,2.1
2022-10-23T09:38:16.132Z,2
2022-10-23T09:39:32.373Z,2.2
2022-10-23T09:40:48.628Z,2.1
2022-10-23T09:42:04.849Z,2.3
2022-10-23T09:43:21.110Z,2.1
2022-10-23T09:44:37.358Z,2
2022-10-23T09:45:53.581Z,2
2022-10-23T09:47:09.817Z,1.9
2022-10-23T09:48:26.058Z,2.2
2022-10-23T09:49:42.300Z,2.2
2022-10-23T09:50:58.535Z,2
2022-10-23T09:52:13.804Z,2.2
2022-10-23T09:53:30.032Z,2.2
2022-10-23T09:54:46.299Z,2.3
2022-10-23T09:56:02.505Z,2.5
2022-10-23T09:57:18.763Z,2.2
2022-10-23T09:58:35.006Z,2.1
2022-10-23T09:59:51.227Z,2.6
2022-10-23T10:02:23.716Z,2.1
2022-10-23T10:03:39.960Z,2
2022-10-23T10:04:56.207Z,2
2022-10-23T10:06:12.444Z,2
2022-10-23T10:07:28.669Z,2.1
2022-10-23T10:08:43.930Z,1.8
2022-10-23T10:10:00.185Z,2.1
2022-10-23T10:11:16.409Z,2
2022-10-23T10:12:32.661Z,2.1
2022-10-23T10:13:48.905Z,2
2022-10-23T10:15:05.126Z,2.1
2022-10-23T10:16:21.367Z,2
2022-10-23T10:17:37.621Z,2
2022-10-23T10:18:53.860Z,2
2022-10-23T10:20:10.089Z,2.1
2022-10-23T10:21:26.332Z,1.9
2022-10-23T10:22:42.576Z,1.8
2022-10-23T10:23:58.807Z,1.7
2022-10-23T10:25:14.081Z,2
2022-10-23T10:26:30.310Z,1.8
2022-10-23T10:27:46.561Z,1.9
2022-10-23T10:29:02.781Z,2
2022-10-23T10:30:19.035Z,2.1
2022-10-23T10:31:35.271Z,2.1
2022-10-23T10:32:51.524Z,1.9
2022-10-23T10:34:07.757Z,2.2
2022-10-23T10:35:24.009Z,1.9
2022-10-23T10:36:40.259Z,1.9
2022-10-23T10:37:56.472Z,2
2022-10-23T10:39:12.720Z,2
2022-10-23T10:40:28.952Z,2
2022-10-23T10:41:44.216Z,2
2022-10-23T10:43:00.456Z,2
2022-10-23T10:44:16.693Z,2.1
2022-10-23T10:45:32.939Z,2.1
2022-10-23T10:46:49.166Z,2
2022-10-23T10:48:05.416Z,2
2022-10-23T10:49:21.666Z,2.2
2022-10-23T10:50:37.895Z,2.2
2022-10-23T10:51:54.138Z,2.3
2022-10-23T10:53:10.370Z,2.2
2022-10-23T10:55:42.849Z,2.6
2022-10-23T10:56:59.099Z,2.2
2022-10-23T10:58:14.341Z,2.1
2022-10-23T10:59:30.578Z,2.4
2022-10-23T11:00:46.826Z,1.9
2022-10-23T11:02:03.060Z,2.1
2022-10-23T11:03:19.299Z,2.2
2022-10-23T11:04:35.534Z,2.2
2022-10-23T11:05:51.776Z,2.2
2022-10-23T11:07:08.022Z,2.1
2022-10-23T11:08:24.275Z,2.3
2022-10-23T11:09:40.505Z,2
2022-10-23T11:10:56.748Z,1.9
2022-10-23T11:12:12.979Z,1.9
2022-10-23T11:13:29.225Z,2
2022-10-23T11:14:44.491Z,1.9
2022-10-23T11:16:00.729Z,1.8
2022-10-23T11:17:16.954Z,2
2022-10-23T11:18:33.200Z,2
2022-10-23T11:19:49.445Z,1.9
2022-10-23T11:21:05.000Z,1.9
2022-10-23T11:22:21.917Z,1.8
2022-10-23T11:23:38.158Z,1.8
2022-10-23T11:24:54.413Z,1.9
2022-10-23T11:26:10.637Z,1.9
2022-10-23T11:27:26.879Z,1.9
2022-10-23T11:28:43.136Z,1.9
2022-10-23T11:29:59.366Z,2
2022-10-23T11:31:14.629Z,2
2022-10-23T11:32:30.867Z,1.8
2022-10-23T11:33:47.110Z,1.8
2022-10-23T11:35:03.347Z,1.8
2022-10-23T11:36:19.573Z,1.6
2022-10-23T11:37:35.817Z,1.6
2022-10-23T11:38:52.070Z,1.8
2022-10-23T11:40:08.294Z,1.8
2022-10-23T11:41:24.536Z,2
2022-10-23T11:42:40.778Z,1.9
2022-10-23T11:43:57.027Z,1.9
2022-10-23T11:45:13.261Z,1.9
2022-10-23T11:46:29.508Z,1.8
2022-10-23T11:47:44.765Z,2.1
2022-10-23T11:49:00.991Z,1.8
2022-10-23T11:50:17.238Z,1.8
2022-10-23T11:51:33.480Z,1.8
2022-10-23T11:52:49.730Z,1.6
2022-10-23T11:54:05.951Z,1.7
2022-10-23T11:55:22.196Z,1.9
2022-10-23T11:56:38.433Z,1.6
2022-10-23T11:57:54.677Z,1.9
2022-10-23T11:59:10.927Z,1.9
2022-10-23T12:00:27.161Z,1.7
2022-10-23T12:01:43.396Z,1.7
2022-10-23T12:02:59.652Z,1.8
2022-10-23T12:04:14.904Z,1.7
2022-10-23T12:05:31.133Z,1.8
2022-10-23T12:06:47.369Z,1.8
2022-10-23T12:08:03.614Z,1.8
2022-10-23T12:09:19.862Z,2.3
2022-10-23T12:10:36.093Z,2.2
2022-10-23T12:11:52.337Z,2.2
2022-10-23T12:13:08.585Z,2
2022-10-23T12:14:24.816Z,2
2022-10-23T12:15:41.051Z,1.8
2022-10-23T12:16:57.313Z,1.8
2022-10-23T12:18:13.528Z,1.7
2022-10-23T12:19:29.778Z,1.7
2022-10-23T12:20:45.032Z,2
2022-10-23T12:22:01.277Z,1.7
2022-10-23T12:23:17.518Z,1.8
2022-10-23T12:24:33.758Z,2
2022-10-23T12:25:49.995Z,2
2022-10-23T12:27:06.246Z,2
2022-10-23T12:28:22.482Z,2
2022-10-23T12:29:38.714Z,2
2022-10-23T12:30:54.945Z,2
2022-10-23T12:32:11.189Z,2.1
2022-10-23T12:34:43.668Z,1.8
2022-10-23T12:35:59.912Z,1.7
2022-10-23T12:37:15.167Z,1.6
2022-10-23T12:38:31.405Z,1.9
2022-10-23T12:39:47.657Z,1.8
2022-10-23T12:41:03.885Z,2.1
2022-10-23T12:42:20.126Z,1.9
2022-10-23T12:43:36.366Z,1.7
2022-10-23T12:44:52.603Z,2
2022-10-23T12:46:08.851Z,2.1
2022-10-23T12:47:25.099Z,1.9
2022-10-23T12:48:41.331Z,2.3
2022-10-23T12:49:57.563Z,2
2022-10-23T12:51:13.815Z,1.9
2022-10-23T12:52:30.048Z,1.9
2022-10-23T12:53:45.307Z,2.2
2022-10-23T12:55:01.548Z,2
2022-10-23T12:56:17.788Z,1.8
2022-10-23T12:57:34.031Z,1.7
2022-10-23T13:00:06.520Z,2
2022-10-23T13:01:22.745Z,1.8
2022-10-23T13:02:38.000Z,2
2022-10-23T13:03:55.223Z,1.9
2022-10-23T13:05:11.470Z,1.8
2022-10-23T13:06:27.698Z,1.9
2022-10-23T13:07:43.956Z,1.9
2022-10-23T13:09:00.189Z,1.8
2022-10-23T13:10:16.417Z,2.3
2022-10-23T13:11:31.687Z,1.8
2022-10-23T13:12:47.924Z,2.1
2022-10-23T13:14:04.157Z,2.1
2022-10-23T13:15:20.409Z,1.8
2022-10-23T13:16:36.650Z,2
2022-10-23T13:17:51.907Z,2.1
2022-10-23T13:19:08.154Z,2
2022-10-23T13:20:24.388Z,2
2022-10-23T13:21:40.627Z,1.8
2022-10-23T13:22:56.865Z,1.9
2022-10-23T13:24:13.107Z,2
2022-10-23T13:25:29.342Z,2
2022-10-23T13:26:45.580Z,2
2022-10-23T13:28:01.814Z,2
2022-10-23T13:29:18.065Z,1.9
2022-10-23T13:30:34.304Z,1.7
2022-10-23T13:31:50.552Z,1.8
2022-10-23T13:33:06.788Z,1.8
2022-10-23T13:34:22.042Z,2.3
2022-10-23T13:35:38.275Z,1.7
2022-10-23T13:36:54.521Z,1.9
2022-10-23T13:38:10.751Z,1.8
2022-10-23T13:39:27.001Z,1.8
2022-10-23T13:40:43.231Z,1.7
2022-10-23T13:41:59.477Z,1.7
2022-10-23T13:43:15.714Z,1.6
2022-10-23T13:44:31.950Z,1.7
2022-10-23T13:45:48.203Z,1.8
2022-10-23T13:47:04.428Z,1.8
2022-10-23T13:48:20.689Z,1.8
2022-10-23T13:49:36.909Z,1.8
2022-10-23T13:50:52.189Z,1.8
2022-10-23T13:52:08.415Z,1.9
2022-10-23T13:53:24.656Z,2
2022-10-23T13:54:40.898Z,2
2022-10-23T13:55:57.130Z,1.9
2022-10-23T13:57:13.387Z,2
2022-10-23T13:58:29.618Z,2.2
2022-10-23T13:59:45.854Z,2.4
2022-10-23T14:01:02.095Z,2.4
2022-10-23T14:02:18.332Z,2.2
2022-10-23T14:03:34.585Z,2.1
2022-10-23T14:04:50.811Z,1.8
2022-10-23T14:06:07.049Z,2.2
2022-10-23T14:07:22.304Z,2
2022-10-23T14:08:38.545Z,1.9
2022-10-23T14:09:54.788Z,1.9
2022-10-23T14:11:11.033Z,1.8
2022-10-23T14:12:27.265Z,1.7
2022-10-23T14:13:43.515Z,1.9
2022-10-23T14:14:59.758Z,2
2022-10-23T14:16:15.999Z,2.1
2022-10-23T14:17:32.230Z,1.8
2022-10-23T14:18:48.459Z,1.8
2022-10-23T14:20:04.717Z,2.2
2022-10-23T14:21:20.950Z,1.9
2022-10-23T14:22:37.191Z,2
2022-10-23T14:23:52.447Z,1.9
2022-10-23T14:25:08.682Z,1.9
2022-10-23T14:26:24.941Z,2
2022-10-23T14:27:41.172Z,2.9
2022-10-23T14:28:57.408Z,2.5
2022-10-23T14:30:13.643Z,2.8
2022-10-23T14:31:29.898Z,2.7
2022-10-23T14:32:46.118Z,3.1
2022-10-23T14:34:02.381Z,3.3
2022-10-23T14:35:18.610Z,4
2022-10-23T14:36:34.853Z,3
2022-10-23T14:37:51.098Z,3
2022-10-23T14:39:07.324Z,2.9
2022-10-23T14:40:22.573Z,2.6
2022-10-23T14:41:38.823Z,2.6
2022-10-23T14:42:55.060Z,2.3
2022-10-23T14:44:11.305Z,2.6
2022-10-23T14:45:27.550Z,3.1
2022-10-23T14:46:43.775Z,3.2
2022-10-23T14:48:00.022Z,3.1
2022-10-23T14:49:16.256Z,3
2022-10-23T14:50:32.496Z,2.6
2022-10-23T14:51:48.743Z,2.5
2022-10-23T14:53:04.992Z,2.5
2022-10-23T14:54:21.212Z,2.3
2022-10-23T14:55:37.460Z,2.1
2022-10-23T14:56:52.726Z,2.1
2022-10-23T14:58:08.949Z,2
2022-10-23T14:59:25.207Z,2.2
2022-10-23T15:00:41.439Z,2.1
2022-10-23T15:01:57.682Z,2.2
2022-10-23T15:03:13.921Z,2
2022-10-23T15:04:30.165Z,2.1
2022-10-23T15:05:46.403Z,2.2
2022-10-23T15:07:02.643Z,2.1
2022-10-23T15:08:18.883Z,2.1
2022-10-23T15:09:35.118Z,2.2
2022-10-23T15:10:51.363Z,2.1
2022-10-23T15:12:07.599Z,2.2
2022-10-23T15:13:22.857Z,2.4
2022-10-23T15:14:39.100Z,2.5
2022-10-23T15:15:55.332Z,2.6
2022-10-23T15:17:11.594Z,2.5
2022-10-23T15:18:27.808Z,2.8
2022-10-23T15:19:44.046Z,2.4
2022-10-23T15:21:00.286Z,2.6
2022-10-23T15:22:16.532Z,2.6
2022-10-23T15:23:32.783Z,2.6
2022-10-23T15:24:49.031Z,2.6
2022-10-23T15:26:05.265Z,2.1
2022-10-23T15:27:21.498Z,2.1
2022-10-23T15:28:37.746Z,2.2
2022-10-23T15:29:52.982Z,2.3
2022-10-23T15:31:09.232Z,2.5
2022-10-23T15:32:25.477Z,3.1
2022-10-23T15:33:41.715Z,4.6
2022-10-23T15:34:57.943Z,4.1
2022-10-23T15:36:14.183Z,2.9
2022-10-23T15:37:30.443Z,2.4
2022-10-23T15:38:46.673Z,2.8
2022-10-23T15:40:02.911Z,3
2022-10-23T15:41:19.164Z,2.7
2022-10-23T15:42:35.381Z,2.8
2022-10-23T15:45:07.866Z,2.7
2022-10-23T15:46:23.131Z,3.5
2022-10-23T15:47:39.375Z,3
2022-10-23T15:48:55.609Z,2.3
2022-10-23T15:50:11.865Z,2.5
2022-10-23T15:51:28.077Z,1.7
2022-10-23T15:52:44.320Z,1.7
2022-10-23T15:54:00.569Z,1.5
2022-10-23T15:55:16.805Z,1.5
2022-10-23T15:56:33.048Z,2.1
2022-10-23T15:57:49.296Z,2.6
2022-10-23T15:59:05.524Z,2.5
2022-10-23T16:00:21.777Z,1.9
2022-10-23T16:01:38.009Z,1.6
2022-10-23T16:02:53.262Z,1.9
2022-10-23T16:04:09.503Z,2.4
2022-10-23T16:05:25.746Z,1.9
2022-10-23T16:06:41.977Z,2.1
2022-10-23T16:07:58.227Z,2.1
2022-10-23T16:09:14.466Z,2.2
2022-10-23T16:10:30.714Z,2
2022-10-23T16:11:46.959Z,2.3
2022-10-23T16:13:03.179Z,2.1
2022-10-23T16:14:19.414Z,3.4
2022-10-23T16:15:35.677Z,3.9
2022-10-23T16:16:51.905Z,3.6
2022-10-23T16:18:08.132Z,2.9
2022-10-23T16:19:23.404Z,2.5
2022-10-23T16:20:39.629Z,2.8
2022-10-23T16:21:55.938Z,2.5
2022-10-23T16:23:12.237Z,2.8
2022-10-23T16:24:28.517Z,2.8
2022-10-23T16:25:44.812Z,2.4
2022-10-23T16:27:01.108Z,2.3
2022-10-23T16:28:17.405Z,2.8
2022-10-23T16:29:33.700Z,2.6
2022-10-23T16:30:49.985Z,2.8
2022-10-23T16:32:06.282Z,2.6
2022-10-23T16:33:22.569Z,2.5
2022-10-23T16:34:38.880Z,2.7
2022-10-23T16:35:54.185Z,3.2
2022-10-23T16:37:10.486Z,3.3
2022-10-23T16:38:26.767Z,3.9
2022-10-23T16:39:43.070Z,4.5
2022-10-23T16:40:59.372Z,4.5
2022-10-23T16:42:15.644Z,4.3
2022-10-23T16:43:31.961Z,4.5
2022-10-23T16:44:48.231Z,3.9
2022-10-23T16:46:04.526Z,4.4
2022-10-23T16:47:20.829Z,8.7
2022-10-23T16:48:37.139Z,4.5
2022-10-23T16:49:53.420Z,4.1
2022-10-23T16:51:09.716Z,3.8
2022-10-23T16:52:25.024Z,3.7
2022-10-23T16:53:41.328Z,3.6
2022-10-23T16:56:13.911Z,4.1
2022-10-23T16:57:30.198Z,4.7
2022-10-23T16:58:46.503Z,8.5
2022-10-23T17:00:02.788Z,4.3
2022-10-23T17:01:19.090Z,4.8
2022-10-23T17:02:35.368Z,4.8
2022-10-23T17:03:51.660Z,4.7
2022-10-23T17:05:07.968Z,3.7
2022-10-23T17:06:24.258Z,3.6
2022-10-23T17:07:40.542Z,4.3
2022-10-23T17:08:55.855Z,3.9
2022-10-23T17:10:12.149Z,4.2
2022-10-23T17:11:28.462Z,4.1
2022-10-23T17:12:44.746Z,4.5
2022-10-23T17:14:01.025Z,4.5
2022-10-23T17:15:17.346Z,5
2022-10-23T17:16:33.625Z,4.1
2022-10-23T17:17:49.910Z,4.3
2022-10-23T17:19:06.222Z,4.4
2022-10-23T17:20:22.506Z,4.6
2022-10-23T17:21:38.799Z,4.4
2022-10-23T17:22:55.088Z,4
2022-10-23T17:24:11.397Z,3.9
2022-10-23T17:25:26.692Z,6
2022-10-23T17:26:42.992Z,5.6
2022-10-23T17:27:59.273Z,5.9
2022-10-23T17:29:15.567Z,6.6
2022-10-23T17:30:31.861Z,5.6
2022-10-23T17:31:48.186Z,6.4
2022-10-23T17:33:03.470Z,4.9
2022-10-23T17:34:19.783Z,5.1
2022-10-23T17:35:36.077Z,38.9
2022-10-23T17:36:52.364Z,44.7
2022-10-23T17:38:08.663Z,37.1
2022-10-23T17:39:24.967Z,26.7
2022-10-23T17:40:41.243Z,30.5
2022-10-23T17:41:57.542Z,44.7
2022-10-23T17:43:13.843Z,68.5
2022-10-23T17:44:30.129Z,58
2022-10-23T17:45:46.427Z,36
2022-10-23T17:47:02.724Z,28